Bei Facebook empfehlenBei Twitter postenGoogle plusPinterest

Das Wetter im Erzgebirge am 05.09.2016

Wetter und Klima am 05.09.2016 Holzhau im Erzgebirge (630m ü.NN)
Letzte gemessene Temperatur und Uhrzeit der Messung23:45:00 Uhr13.00 °C
Temperatur (Maximum / Höchstwert) und Uhrzeit der Messung15:30:00 Uhr14.30 °C
Temperatur (Minimum / Tiefstwert) und Uhrzeit der Messung08:15:0011.20 °C
Errechneter Absolutwert der Temperaturschwankungen zwischen Tmin und Tmax des Tages3.10 K
Errechnete Tagesmitteltemperatur12.47604 °C
Gesamt - Niederschlag des Tages (in flüssiger Form)18.13 Liter / m²
Luftdruck (Maximum / Höchstwert) und Zeitpunkt der Messung23:45:00 Uhr1018.80 hPa
Luftdruck (Minimum / Tiefstwert) und Zeitpunkt der Messung00:30:00 Uhr1008.70 hPa
Errechneter Absolutwert der Luftdruckschwankungen des Tages10.10 hPa
Höchste gemessene Windgeschwindigkeit und Uhrzeit der Messung23:45:00 Uhr0.00 km/h
Errechnete Windhäufigkeit in Relation zu den Messwerten des Tages0.00000 %
Niedrigste Windkühle (Windchill) und Zeitpunkt der Messung08:15:00 Uhr11.20 °C
Taupunkt (Maximum / Höchstwert) und Uhrzeit der Messung15:30:00 Uhr13.30 °C
Taupunkt (Minimum / Tiefstwert) und Uhrzeit der Messung08:15:0010.30 °C
Anzahl der automatisch eingelesenen Messwerte 96

Detaillierte Wetter- und Klima- Messwerte für den 05.09.2016 in Holzhau im Erzgebirge (630m ü.NN)
ZeitTemperaturLuftdruckRel. LuftfeuchteWindWindrichtungWindchillTaupunktNiederschlag l/m²
23:45:0013.00 °C1018.80 hPa95.00 %12.20 °C18.13
23:30:0012.90 °C1018.60 hPa95.00 %12.10 °C16.58
23:15:0012.90 °C1018.60 hPa95.00 %12.10 °C15.54
23:00:0012.90 °C1018.40 hPa95.00 %12.10 °C15.54
22:45:0012.90 °C1018.30 hPa95.00 %12.10 °C15.54
22:30:0012.90 °C1018.00 hPa95.00 %12.10 °C15.54
22:15:0013.00 °C1017.90 hPa95.00 %12.20 °C15.03
22:00:0013.00 °C1017.60 hPa95.00 %12.20 °C14.51
21:45:0013.10 °C1017.80 hPa95.00 %12.30 °C14.51
21:30:0013.10 °C1017.70 hPa95.00 %12.30 °C14.51
21:15:0013.10 °C1017.70 hPa95.00 %12.30 °C14.51
21:00:0013.10 °C1017.70 hPa95.00 %12.30 °C14.51
20:45:0013.20 °C1017.20 hPa95.00 %12.40 °C13.99
20:30:0013.20 °C1017.30 hPa95.00 %12.40 °C12.44
20:15:0013.20 °C1017.10 hPa95.00 %12.40 °C11.92
20:00:0013.20 °C1016.90 hPa95.00 %12.40 °C11.40
19:45:0013.20 °C1016.90 hPa95.00 %12.40 °C11.40
19:30:0013.20 °C1016.70 hPa95.00 %12.40 °C11.40
19:15:0013.20 °C1016.70 hPa95.00 %12.40 °C10.88
19:00:0013.20 °C1016.40 hPa94.00 %12.30 °C10.88
18:45:0013.30 °C1016.40 hPa94.00 %12.40 °C10.88
18:30:0013.50 °C1016.10 hPa94.00 %12.60 °C10.36
18:15:0013.60 °C1016.10 hPa94.00 %12.70 °C10.36
18:00:0013.60 °C1015.80 hPa95.00 %12.80 °C10.36
17:45:0013.50 °C1015.80 hPa94.00 %12.60 °C10.36
17:30:0013.50 °C1015.60 hPa95.00 %12.70 °C10.36
17:15:0013.20 °C1015.70 hPa94.00 %12.30 °C10.36
17:00:0013.10 °C1015.70 hPa94.00 %12.20 °C10.36
16:45:0013.10 °C1015.40 hPa94.00 %12.20 °C10.36
16:30:0013.30 °C1015.10 hPa94.00 %12.40 °C10.36
16:15:0013.20 °C1015.10 hPa94.00 %12.30 °C9.85
16:00:0013.30 °C1014.90 hPa94.00 %12.40 °C9.33
15:45:0013.80 °C1014.80 hPa94.00 %12.90 °C9.33
15:30:0014.30 °C1014.50 hPa94.00 %13.30 °C8.29
15:15:0013.90 °C1014.30 hPa95.00 %13.10 °C8.29
15:00:0013.40 °C1014.40 hPa94.00 %12.50 °C8.29
14:45:0013.90 °C1014.20 hPa95.00 %13.10 °C8.29
14:30:0013.90 °C1014.20 hPa95.00 %13.10 °C8.29
14:15:0013.80 °C1014.00 hPa95.00 %13.00 °C8.29
14:00:0013.60 °C1014.00 hPa95.00 %12.80 °C8.29
13:45:0013.30 °C1013.80 hPa95.00 %12.50 °C8.29
13:30:0012.80 °C1013.60 hPa95.00 %12.00 °C8.29
13:15:0012.50 °C1013.50 hPa95.00 %11.70 °C7.77
13:00:0012.40 °C1013.30 hPa95.00 %11.60 °C7.77
12:45:0012.20 °C1013.30 hPa95.00 %11.40 °C7.77
12:30:0012.10 °C1013.20 hPa95.00 %11.30 °C7.26
12:15:0012.00 °C1013.10 hPa95.00 %11.20 °C7.26
12:00:0011.90 °C1013.00 hPa95.00 %11.10 °C7.26
11:45:0011.90 °C1012.80 hPa95.00 %11.10 °C6.74
11:30:0011.80 °C1012.60 hPa95.00 %11.00 °C6.22
11:15:0011.70 °C1012.50 hPa95.00 %10.90 °C6.22
11:00:0011.60 °C1012.50 hPa95.00 %10.80 °C5.70
10:45:0011.50 °C1012.30 hPa95.00 %10.70 °C5.18
10:30:0011.50 °C1012.10 hPa95.00 %10.70 °C4.67
10:15:0011.50 °C1012.10 hPa94.00 %10.60 °C4.15
10:00:0011.70 °C1012.10 hPa94.00 %10.80 °C4.15
09:45:0011.90 °C1011.70 hPa95.00 %11.10 °C3.63
09:30:0011.60 °C1011.50 hPa95.00 %10.80 °C3.63
09:15:0011.40 °C1011.50 hPa95.00 %10.60 °C3.63
09:00:0011.30 °C1011.40 hPa95.00 %10.50 °C3.63
08:45:0011.30 °C1011.20 hPa95.00 %10.50 °C3.63
08:30:0011.30 °C1011.10 hPa94.00 %10.40 °C3.63
08:15:0011.20 °C1010.70 hPa94.00 %10.30 °C3.63
08:00:0011.30 °C1010.50 hPa94.00 %10.40 °C3.11
07:45:0011.30 °C1010.30 hPa94.00 %10.40 °C3.11
07:30:0011.30 °C1010.40 hPa94.00 %10.40 °C3.11
07:15:0011.20 °C1010.40 hPa94.00 %10.30 °C3.11
07:00:0011.30 °C1010.20 hPa94.00 %10.40 °C3.11
06:45:0011.30 °C1010.30 hPa94.00 %10.40 °C2.59
06:30:0011.40 °C1010.20 hPa94.00 %10.50 °C1.56
06:15:0011.50 °C1009.90 hPa94.00 %10.60 °C1.56
06:00:0011.50 °C1009.60 hPa94.00 %10.60 °C1.56
05:45:0011.50 °C1009.80 hPa94.00 %10.60 °C1.56
05:30:0011.60 °C1009.60 hPa94.00 %10.70 °C1.04
05:15:0011.60 °C1009.50 hPa94.00 %10.70 °C0.52
05:00:0011.70 °C1009.60 hPa93.00 %10.60 °C0.52
04:45:0011.80 °C1009.70 hPa93.00 %10.70 °C0.52
04:30:0011.80 °C1009.50 hPa93.00 %10.70 °C0.52
04:15:0011.80 °C1009.40 hPa93.00 %10.70 °C0.52
04:00:0011.90 °C1009.50 hPa93.00 %10.80 °C 
03:45:0011.90 °C1009.40 hPa93.00 %10.80 °C 
03:30:0012.00 °C1009.30 hPa93.00 %10.90 °C 
03:15:0012.10 °C1009.20 hPa93.00 %11.00 °C 
03:00:0012.20 °C1009.00 hPa93.00 %11.10 °C 
02:45:0012.40 °C1008.90 hPa93.00 %11.30 °C 
02:30:0012.40 °C1008.90 hPa92.00 %11.10 °C 
02:15:0012.40 °C1008.90 hPa92.00 %11.10 °C 
02:00:0012.40 °C1008.80 hPa92.00 %11.10 °C 
01:45:0012.40 °C1008.80 hPa92.00 %11.10 °C 
01:30:0012.30 °C1009.00 hPa92.00 %11.00 °C 
01:15:0012.40 °C1008.90 hPa92.00 %11.10 °C 
01:00:0012.40 °C1008.80 hPa92.00 %11.10 °C 
00:45:0012.40 °C1008.80 hPa92.00 %11.10 °C 
00:30:0012.40 °C1008.70 hPa91.00 %11.00 °C 
00:15:0012.50 °C1008.70 hPa91.00 %11.10 °C 
00:00:0012.60 °C1008.80 hPa91.00 %11.20 °C 

Permanenter Link zu dieser Seite: Wetter im Erzgebirge am 05.09.2016
Performance-Info: Die Erstellung der Seite / Statistik(en) / Tabelle(n) erforderte 5 Datenbankserver-Abfrage(n) und dauerte 124 Millisekunden. (Dieser Messwert ist von der Gesamt-Auslastung des Servers abhängig.)
Erzgebirge - Wetter | Erzgebirge - Wetter (Mobilgeräte) | Komplette Klimadatenbank